createdAt,value
2018-09-04T00:02:19.651Z,35.38
2018-09-04T00:04:48.056Z,36.55
2018-09-04T00:07:19.832Z,37.53
2018-09-04T00:09:49.460Z,38.63
2018-09-04T00:12:18.585Z,38.38
2018-09-04T00:14:47.172Z,37.03
2018-09-04T00:17:15.729Z,33.67
2018-09-04T00:19:44.085Z,38.60
2018-09-04T00:22:12.536Z,36.77
2018-09-04T00:24:41.055Z,34.87
2018-09-04T00:27:09.753Z,35.03
2018-09-04T00:29:38.361Z,34.77
2018-09-04T00:32:06.504Z,36.43
2018-09-04T00:34:34.926Z,35.50
2018-09-04T00:37:03.184Z,35.30
2018-09-04T00:39:32.228Z,35.70
2018-09-04T00:42:00.694Z,35.33
2018-09-04T00:44:29.709Z,33.55
2018-09-04T00:46:58.695Z,34.50
2018-09-04T00:49:27.633Z,36.25
2018-09-04T00:51:56.044Z,34.90
2018-09-04T00:54:24.468Z,34.35
2018-09-04T00:56:53.156Z,32.53
2018-09-04T00:59:21.373Z,32.65
2018-09-04T01:01:50.071Z,33.17
2018-09-04T01:04:18.728Z,31.50
2018-09-04T01:06:47.493Z,30.80
2018-09-04T01:09:18.923Z,31.40
2018-09-04T01:11:47.172Z,33.00
2018-09-04T01:14:15.896Z,30.97
2018-09-04T01:16:44.664Z,32.00
2018-09-04T01:19:13.344Z,30.27
2018-09-04T01:21:42.041Z,30.20
2018-09-04T01:24:10.924Z,30.47
2018-09-04T01:26:39.122Z,31.50
2018-09-04T01:29:07.796Z,31.30
2018-09-04T01:31:36.574Z,29.20
2018-09-04T01:34:04.688Z,30.43
2018-09-04T01:36:33.438Z,28.57
2018-09-04T01:39:01.741Z,30.83
2018-09-04T01:41:29.868Z,29.40
2018-09-04T01:43:58.257Z,29.37
2018-09-04T01:46:27.018Z,26.90
2018-09-04T01:48:55.360Z,27.63
2018-09-04T01:51:23.817Z,27.82
2018-09-04T01:53:52.564Z,25.07
2018-09-04T01:56:21.449Z,26.53
2018-09-04T01:58:50.097Z,26.00
2018-09-04T02:01:19.045Z,25.20
2018-09-04T02:03:47.693Z,24.73
2018-09-04T02:06:16.180Z,25.77
2018-09-04T02:08:44.873Z,24.47
2018-09-04T02:11:13.482Z,23.60
2018-09-04T02:13:41.940Z,24.23
2018-09-04T02:16:10.669Z,24.03
2018-09-04T02:18:38.813Z,22.60
2018-09-04T02:21:07.280Z,22.95
2018-09-04T02:23:35.736Z,21.97
2018-09-04T02:26:04.507Z,23.80
2018-09-04T02:28:33.146Z,22.70
2018-09-04T02:31:01.904Z,24.00
2018-09-04T02:33:30.299Z,22.40
2018-09-04T02:35:58.991Z,24.20
2018-09-04T02:38:27.833Z,23.37
2018-09-04T02:40:55.958Z,22.93
2018-09-04T02:43:24.393Z,22.40
2018-09-04T02:45:52.580Z,22.90
2018-09-04T02:48:21.034Z,22.60
2018-09-04T02:50:49.933Z,22.00
2018-09-04T02:53:18.385Z,21.27
2018-09-04T02:55:46.918Z,21.90
2018-09-04T02:58:16.096Z,21.02
2018-09-04T03:00:44.698Z,22.07
2018-09-04T03:03:12.848Z,21.70
2018-09-04T03:05:41.359Z,21.37
2018-09-04T03:08:09.632Z,21.90
2018-09-04T03:10:37.814Z,21.40
2018-09-04T03:13:06.521Z,20.87
2018-09-04T03:15:34.812Z,21.70
2018-09-04T03:18:03.270Z,20.37
2018-09-04T03:20:31.997Z,21.07
2018-09-04T03:23:00.512Z,21.73
2018-09-04T03:25:28.817Z,20.03
2018-09-04T03:27:57.397Z,20.13
2018-09-04T03:30:26.066Z,19.92
2018-09-04T03:32:54.813Z,21.33
2018-09-04T03:35:23.591Z,19.87
2018-09-04T03:37:52.016Z,21.87
2018-09-04T03:40:20.753Z,19.65
2018-09-04T03:42:49.208Z,19.83
2018-09-04T03:45:17.921Z,19.90
2018-09-04T03:47:46.412Z,18.80
2018-09-04T03:50:15.951Z,20.02
2018-09-04T03:52:44.057Z,19.70
2018-09-04T03:55:12.801Z,19.73
2018-09-04T03:57:41.359Z,20.07
2018-09-04T04:00:09.671Z,19.90
2018-09-04T04:02:38.122Z,19.77
2018-09-04T04:05:06.262Z,20.13
2018-09-04T04:07:36.377Z,19.03
2018-09-04T04:10:04.797Z,20.40
2018-09-04T04:12:33.269Z,19.30
2018-09-04T04:15:01.986Z,20.37
2018-09-04T04:17:30.893Z,19.70
2018-09-04T04:19:59.660Z,20.37
2018-09-04T04:22:27.978Z,18.87
2018-09-04T04:24:56.259Z,19.70
2018-09-04T04:27:24.917Z,19.67
2018-09-04T04:29:53.041Z,18.30
2018-09-04T04:32:22.392Z,17.73
2018-09-04T04:34:50.712Z,19.17
2018-09-04T04:37:18.965Z,19.27
2018-09-04T04:39:47.834Z,17.27
2018-09-04T04:42:16.493Z,17.50
2018-09-04T04:44:44.637Z,17.57
2018-09-04T04:47:12.864Z,17.50
2018-09-04T04:49:41.028Z,17.03
2018-09-04T04:52:09.484Z,17.50
2018-09-04T04:54:37.956Z,16.63
2018-09-04T04:57:06.066Z,17.07
2018-09-04T04:59:34.525Z,17.63
2018-09-04T05:02:03.409Z,16.50
2018-09-04T05:04:31.825Z,17.12
2018-09-04T05:07:00.130Z,16.70
2018-09-04T05:09:28.260Z,16.33
2018-09-04T05:11:57.053Z,16.50
2018-09-04T05:14:25.797Z,16.90
2018-09-04T05:16:53.917Z,16.60
2018-09-04T05:19:22.061Z,15.83
2018-09-04T05:21:50.168Z,16.33
2018-09-04T05:24:18.321Z,15.53
2018-09-04T05:26:46.697Z,14.90
2018-09-04T05:29:16.463Z,15.85
2018-09-04T05:31:48.781Z,15.40
2018-09-04T05:34:17.464Z,15.33
2018-09-04T05:36:46.140Z,14.87
2018-09-04T05:39:16.045Z,14.03
2018-09-04T05:41:44.513Z,15.33
2018-09-04T05:44:12.947Z,14.20
2018-09-04T05:46:43.973Z,14.37
2018-09-04T05:49:14.620Z,14.07
2018-09-04T05:51:43.281Z,14.10
2018-09-04T05:54:11.701Z,12.98
2018-09-04T05:56:40.503Z,13.67
2018-09-04T05:59:08.917Z,14.00
2018-09-04T06:01:37.037Z,13.53
2018-09-04T06:04:05.485Z,12.30
2018-09-04T06:06:34.278Z,12.80
2018-09-04T06:09:02.686Z,12.58
2018-09-04T06:11:31.461Z,15.05
2018-09-04T06:14:00.201Z,13.32
2018-09-04T06:16:28.921Z,13.00
2018-09-04T06:18:57.613Z,12.00
2018-09-04T06:21:25.949Z,12.63
2018-09-04T06:23:54.400Z,12.70
2018-09-04T06:26:22.848Z,12.85
2018-09-04T06:28:50.957Z,12.70
2018-09-04T06:31:19.249Z,13.03
2018-09-04T06:33:48.181Z,12.03
2018-09-04T06:36:16.305Z,11.93
2018-09-04T06:39:00.618Z,12.73
2018-09-04T06:41:29.721Z,12.05
2018-09-04T06:43:57.968Z,11.30
2018-09-04T06:46:26.619Z,11.70
2018-09-04T06:48:55.297Z,11.90
2018-09-04T06:51:23.416Z,11.90
2018-09-04T06:53:52.206Z,11.97
2018-09-04T06:56:20.304Z,11.97
2018-09-04T06:58:48.772Z,12.40
2018-09-04T07:01:17.245Z,12.97
2018-09-04T07:03:45.681Z,12.90
2018-09-04T07:06:14.015Z,12.20
2018-09-04T07:08:42.466Z,12.17
2018-09-04T07:11:10.912Z,13.33
2018-09-04T07:13:39.465Z,12.90
2018-09-04T07:16:07.936Z,12.43
2018-09-04T07:18:36.577Z,11.90
2018-09-04T07:21:05.300Z,10.83
2018-09-04T07:23:34.057Z,12.30
2018-09-04T07:26:02.529Z,11.80
2018-09-04T07:28:30.984Z,11.23
2018-09-04T07:30:59.112Z,12.13
2018-09-04T07:33:27.793Z,12.33
2018-09-04T07:35:56.233Z,11.20
2018-09-04T07:38:24.360Z,11.63
2018-09-04T07:40:52.796Z,11.43
2018-09-04T07:43:21.550Z,11.12
2018-09-04T07:45:49.645Z,11.47
2018-09-04T07:48:18.056Z,11.70
2018-09-04T07:50:46.163Z,11.10
2018-09-04T07:53:14.276Z,13.33
2018-09-04T07:55:42.704Z,12.20
2018-09-04T07:58:11.452Z,11.83
2018-09-04T08:00:39.953Z,12.67
2018-09-04T08:03:08.461Z,11.83
2018-09-04T08:05:36.915Z,11.40
2018-09-04T08:08:05.664Z,10.63
2018-09-04T08:10:35.897Z,10.82
2018-09-04T08:13:06.337Z,11.00
2018-09-04T08:15:35.117Z,11.10
2018-09-04T08:18:03.618Z,11.30
2018-09-04T08:20:31.825Z,10.70
2018-09-04T08:23:00.585Z,11.20
2018-09-04T08:25:29.525Z,10.60
2018-09-04T08:27:58.157Z,10.60
2018-09-04T08:30:26.285Z,11.20
2018-09-04T08:32:54.796Z,10.63
2018-09-04T08:35:23.717Z,9.93
2018-09-04T08:37:56.461Z,9.60
2018-09-04T08:40:24.892Z,10.15
2018-09-04T08:42:53.228Z,10.10
2018-09-04T08:45:21.460Z,10.90
2018-09-04T08:47:49.663Z,10.63
2018-09-04T08:50:18.460Z,10.80
2018-09-04T08:52:46.805Z,12.07
2018-09-04T09:00:20.933Z,10.67
2018-09-04T09:02:49.449Z,10.90
2018-09-04T09:05:17.899Z,10.67
2018-09-04T09:07:46.054Z,10.60
2018-09-04T09:10:14.486Z,11.07
2018-09-04T09:12:42.829Z,10.80
2018-09-04T09:15:11.273Z,11.37
2018-09-04T09:17:39.743Z,11.60
2018-09-04T09:20:08.265Z,10.27
2018-09-04T09:22:36.405Z,11.27
2018-09-04T09:25:05.134Z,10.80
2018-09-04T09:27:33.244Z,10.47
2018-09-04T09:30:02.134Z,9.97
2018-09-04T09:32:31.834Z,11.70
2018-09-04T09:35:00.303Z,12.03
2018-09-04T09:37:29.015Z,13.30
2018-09-04T09:39:57.465Z,11.50
2018-09-04T09:42:25.958Z,16.53
2018-09-04T09:44:55.003Z,13.13
2018-09-04T09:47:24.110Z,13.00
2018-09-04T09:49:52.243Z,16.00
2018-09-04T09:52:20.928Z,10.87
2018-09-04T09:54:49.389Z,12.97
2018-09-04T09:57:17.863Z,12.17
2018-09-04T09:59:46.016Z,10.73
2018-09-04T10:02:24.766Z,12.17
2018-09-04T10:04:53.221Z,11.00
2018-09-04T10:07:22.115Z,11.00
2018-09-04T10:09:50.314Z,11.80
2018-09-04T10:12:18.921Z,10.17
2018-09-04T10:14:47.057Z,11.73
2018-09-04T10:17:15.160Z,12.50
2018-09-04T10:19:43.291Z,11.30
2018-09-04T10:22:11.594Z,11.70
2018-09-04T10:24:40.061Z,11.07
2018-09-04T10:27:08.531Z,10.43
2018-09-04T10:29:37.185Z,11.03
2018-09-04T10:32:06.109Z,10.03
2018-09-04T10:34:34.571Z,12.00
2018-09-04T10:37:03.132Z,10.60
2018-09-04T10:42:21.659Z,10.60
2018-09-04T10:44:49.898Z,11.03
2018-09-04T10:47:18.348Z,10.53
2018-09-04T10:49:46.472Z,9.80
2018-09-04T10:52:14.921Z,10.90
2018-09-04T10:54:43.262Z,10.90
2018-09-04T10:57:11.909Z,12.00
2018-09-04T10:59:40.397Z,11.13
2018-09-04T11:02:10.599Z,10.70
2018-09-04T11:04:39.414Z,10.97
2018-09-04T11:07:07.977Z,10.53
2018-09-04T11:09:36.237Z,10.53
2018-09-04T11:12:04.413Z,10.20
2018-09-04T11:14:32.593Z,10.40
2018-09-04T11:17:01.046Z,11.27
2018-09-04T11:19:29.368Z,10.33
2018-09-04T11:21:57.843Z,10.30
2018-09-04T11:24:26.569Z,10.50
2018-09-04T11:26:55.014Z,10.50
2018-09-04T11:54:59.229Z,9.77
2018-09-04T11:57:27.404Z,8.83
2018-09-04T11:59:55.857Z,10.67
2018-09-04T12:02:30.648Z,11.23
2018-09-04T12:05:00.257Z,10.93
2018-09-04T12:07:30.907Z,10.30
2018-09-04T12:09:59.573Z,10.37
2018-09-04T12:12:28.776Z,10.50
2018-09-04T12:14:58.492Z,10.10
2018-09-04T12:17:28.213Z,12.27
2018-09-04T12:21:04.805Z,11.20
2018-09-04T12:23:34.831Z,10.70
2018-09-04T12:26:06.377Z,10.17
2018-09-04T12:28:34.687Z,11.20
2018-09-04T12:31:03.292Z,10.00
2018-09-04T12:33:31.754Z,11.63
2018-09-04T12:35:59.920Z,11.43
2018-09-04T12:38:31.278Z,10.53
2018-09-04T12:41:04.159Z,10.63
2018-09-04T12:43:32.844Z,10.23
2018-09-04T12:46:01.321Z,10.10
2018-09-04T12:48:30.590Z,11.23
2018-09-04T12:51:00.272Z,10.47
2018-09-04T12:53:29.244Z,10.70
2018-09-04T12:55:57.677Z,10.50
2018-09-04T12:58:26.390Z,11.03
2018-09-04T13:00:56.348Z,10.73
2018-09-04T13:03:26.241Z,11.13
2018-09-04T13:05:54.641Z,10.53
2018-09-04T13:08:27.759Z,10.67
2018-09-04T13:10:56.088Z,10.50
2018-09-04T13:13:24.552Z,11.10
2018-09-04T13:15:54.604Z,10.23
2018-09-04T13:18:23.136Z,10.93
2018-09-04T13:20:51.640Z,11.33
2018-09-04T13:23:20.108Z,11.17
2018-09-04T13:25:48.444Z,10.50
2018-09-04T13:28:16.913Z,11.80
2018-09-04T13:30:45.567Z,10.87
2018-09-04T13:33:13.720Z,11.47
2018-09-04T13:35:42.228Z,11.10
2018-09-04T13:38:11.533Z,10.50
2018-09-04T13:40:40.585Z,10.60
2018-09-04T13:43:09.057Z,11.33
2018-09-04T13:45:37.169Z,10.70
2018-09-04T13:48:05.293Z,10.20
2018-09-04T13:50:33.768Z,11.87
2018-09-04T13:53:02.235Z,10.73
2018-09-04T13:55:30.692Z,11.97
2018-09-04T13:58:02.148Z,11.30
2018-09-04T14:00:31.654Z,11.30
2018-09-04T14:03:00.115Z,13.03
2018-09-04T14:05:28.234Z,11.50
2018-09-04T14:07:56.596Z,11.43
2018-09-04T14:10:25.144Z,11.73
2018-09-04T14:12:53.588Z,10.53
2018-09-04T14:15:22.036Z,12.70
2018-09-04T14:17:50.191Z,11.60
2018-09-04T14:20:18.541Z,11.90
2018-09-04T14:22:47.367Z,11.30
2018-09-04T14:25:17.085Z,12.00
2018-09-04T14:27:45.190Z,11.87
2018-09-04T14:30:16.778Z,11.63
2018-09-04T14:32:43.544Z,12.20
2018-09-04T14:35:12.620Z,11.13
2018-09-04T14:37:40.740Z,10.17
2018-09-04T14:40:09.207Z,11.80
2018-09-04T14:42:37.652Z,11.93
2018-09-04T14:45:05.989Z,13.23
2018-09-04T14:47:34.628Z,11.97
2018-09-04T14:50:03.323Z,11.50
2018-09-04T14:52:31.784Z,11.90
2018-09-04T14:55:00.257Z,11.90
2018-09-04T14:57:28.380Z,11.60
2018-09-04T14:59:56.521Z,11.63
2018-09-04T15:02:24.872Z,12.53
2018-09-04T15:04:53.387Z,12.03
2018-09-04T15:07:21.876Z,11.93
2018-09-04T15:09:50.360Z,13.10
2018-09-04T15:12:18.472Z,11.93
2018-09-04T15:14:47.144Z,11.40
2018-09-04T15:17:15.658Z,12.50
2018-09-04T15:19:44.172Z,11.90
2018-09-04T15:22:12.615Z,11.63
2018-09-04T15:24:41.094Z,11.50
2018-09-04T15:27:09.569Z,11.53
2018-09-04T15:29:38.032Z,11.13
2018-09-04T15:32:06.811Z,11.67
2018-09-04T15:34:35.258Z,12.70
2018-09-04T15:37:03.970Z,11.97
2018-09-04T15:39:32.265Z,11.80
2018-09-04T15:42:00.583Z,11.93
2018-09-04T15:44:28.744Z,12.40
2018-09-04T15:46:57.193Z,11.83
2018-09-04T15:49:31.140Z,11.80
2018-09-04T15:52:00.139Z,12.10
2018-09-04T15:54:41.411Z,12.00
2018-09-04T15:57:09.956Z,12.23
2018-09-04T15:59:38.494Z,11.37
2018-09-04T16:02:06.841Z,11.33
2018-09-04T16:04:35.181Z,11.53
2018-09-04T16:07:07.224Z,12.07
2018-09-04T16:09:35.602Z,11.77
2018-09-04T16:12:03.948Z,11.57
2018-09-04T16:14:32.655Z,12.10
2018-09-04T16:17:00.842Z,11.77
2018-09-04T16:19:29.007Z,11.30
2018-09-04T16:21:57.960Z,11.50
2018-09-04T16:24:26.332Z,11.00
2018-09-04T16:26:54.506Z,11.93
2018-09-04T16:29:22.879Z,11.77
2018-09-04T16:31:51.197Z,11.73
2018-09-04T16:34:19.623Z,11.77
2018-09-04T16:36:48.206Z,12.20
2018-09-04T16:39:16.705Z,11.03
2018-09-04T16:41:45.379Z,11.63
2018-09-04T16:44:14.020Z,10.97
2018-09-04T16:46:42.471Z,10.80
2018-09-04T16:49:10.591Z,11.70
2018-09-04T16:51:39.052Z,11.30
2018-09-04T16:54:07.503Z,11.07
2018-09-04T16:56:35.824Z,11.87
2018-09-04T16:59:04.345Z,11.30
2018-09-04T17:01:32.479Z,10.90
2018-09-04T17:04:01.132Z,11.03
2018-09-04T17:06:29.283Z,12.77
2018-09-04T17:08:57.807Z,10.63
2018-09-04T17:11:26.319Z,10.97
2018-09-04T17:13:55.723Z,11.07
2018-09-04T17:16:23.859Z,11.63
2018-09-04T17:18:52.197Z,11.77
2018-09-04T17:21:20.668Z,11.53
2018-09-04T17:23:49.119Z,12.00
2018-09-04T17:26:17.599Z,11.73
2018-09-04T17:28:45.699Z,11.33
2018-09-04T17:31:13.833Z,11.43
2018-09-04T17:33:41.948Z,11.90
2018-09-04T17:36:10.615Z,10.43
2018-09-04T17:38:39.217Z,11.00
2018-09-04T17:41:07.679Z,12.10
2018-09-04T17:43:36.129Z,10.80
2018-09-04T17:46:04.813Z,11.10
2018-09-04T17:48:33.363Z,11.90
2018-09-04T17:51:01.923Z,11.53
2018-09-04T17:53:30.363Z,11.07
2018-09-04T17:55:58.688Z,10.53
2018-09-04T17:58:26.852Z,10.77
2018-09-04T18:00:55.354Z,10.93
2018-09-04T18:03:23.703Z,10.53
2018-09-04T18:05:52.400Z,10.87
2018-09-04T18:08:20.556Z,11.20
2018-09-04T18:10:49.204Z,11.87
2018-09-04T18:13:17.720Z,10.77
2018-09-04T18:15:45.910Z,11.50
2018-09-04T18:18:15.442Z,10.50
2018-09-04T18:20:44.140Z,11.90
2018-09-04T18:23:12.605Z,11.97
2018-09-04T18:25:40.720Z,11.00
2018-09-04T18:28:09.201Z,11.37
2018-09-04T18:30:37.959Z,11.07
2018-09-04T18:33:06.405Z,12.03
2018-09-04T18:35:35.077Z,10.93
2018-09-04T18:38:04.639Z,11.03
2018-09-04T18:40:33.007Z,12.40
2018-09-04T18:43:01.157Z,11.47
2018-09-04T18:45:43.798Z,11.43
2018-09-04T18:48:12.243Z,11.60
2018-09-04T18:50:40.731Z,11.03
2018-09-04T18:53:09.200Z,10.87
2018-09-04T18:55:37.671Z,11.53
2018-09-04T18:58:06.632Z,10.13
2018-09-04T19:00:35.076Z,11.23
2018-09-04T19:03:03.569Z,11.07
2018-09-04T19:05:32.116Z,11.30
2018-09-04T19:08:02.193Z,10.93
2018-09-04T19:10:31.135Z,11.00
2018-09-04T19:12:59.766Z,11.73
2018-09-04T19:15:28.983Z,10.40
2018-09-04T19:17:57.355Z,10.17
2018-09-04T19:20:25.523Z,10.53
2018-09-04T19:22:54.160Z,11.00
2018-09-04T19:25:22.312Z,12.00
2018-09-04T19:27:50.683Z,12.83
2018-09-04T19:30:19.283Z,11.53
2018-09-04T19:32:47.416Z,10.90
2018-09-04T19:35:16.063Z,11.70
2018-09-04T19:37:45.396Z,10.73
2018-09-04T19:40:14.290Z,11.00
2018-09-04T19:42:43.307Z,9.93
2018-09-04T19:45:11.691Z,10.50
2018-09-04T19:47:40.867Z,10.67
2018-09-04T19:50:10.114Z,11.00
2018-09-04T19:52:38.971Z,11.03
2018-09-04T19:55:08.797Z,10.87
2018-09-04T19:57:36.934Z,10.50
2018-09-04T20:00:05.176Z,10.90
2018-09-04T20:02:33.636Z,10.97
2018-09-04T20:05:02.288Z,10.07
2018-09-04T20:07:30.799Z,10.40
2018-09-04T20:09:59.265Z,9.00
2018-09-04T20:12:27.736Z,10.80
2018-09-04T20:14:55.887Z,10.90
2018-09-04T20:17:24.454Z,11.17
2018-09-04T20:19:52.764Z,11.20
2018-09-04T20:22:21.199Z,10.73
2018-09-04T20:24:49.409Z,10.53
2018-09-04T20:27:17.903Z,10.40
2018-09-04T20:29:46.415Z,10.40
2018-09-04T20:32:15.501Z,11.10
2018-09-04T20:34:43.973Z,11.93
2018-09-04T20:37:12.395Z,11.10
2018-09-04T20:39:40.529Z,11.07
2018-09-04T20:42:09.027Z,9.80
2018-09-04T20:44:37.321Z,9.93
2018-09-04T20:47:05.776Z,10.20
2018-09-04T20:49:34.207Z,10.20
2018-09-04T20:52:02.319Z,10.60
2018-09-04T20:54:30.694Z,10.43
2018-09-04T20:57:31.984Z,11.70
2018-09-04T21:00:16.940Z,10.33
2018-09-04T21:02:56.986Z,10.30
2018-09-04T21:05:36.476Z,10.60
2018-09-04T21:08:18.159Z,10.40
2018-09-04T21:10:47.117Z,10.07
2018-09-04T21:13:15.539Z,10.97
2018-09-04T21:15:43.675Z,9.83
2018-09-04T21:18:12.399Z,10.10
2018-09-04T21:20:40.620Z,10.77
2018-09-04T21:23:09.091Z,10.43
2018-09-04T21:25:37.239Z,10.60
2018-09-04T21:28:05.646Z,9.83
2018-09-04T21:30:34.324Z,10.50
2018-09-04T21:33:02.825Z,11.20
2018-09-04T21:35:31.284Z,10.97
2018-09-04T21:38:00.030Z,10.63
2018-09-04T21:40:28.471Z,10.43
2018-09-04T21:42:56.600Z,10.33
2018-09-04T21:45:24.789Z,10.60
2018-09-04T21:47:53.242Z,11.60
2018-09-04T21:50:21.707Z,10.90
2018-09-04T21:52:50.171Z,11.30
2018-09-04T21:55:18.297Z,11.17
2018-09-04T21:57:46.920Z,12.10
2018-09-04T22:00:19.720Z,11.67
2018-09-04T22:02:48.172Z,12.00
2018-09-04T22:05:16.581Z,11.40
2018-09-04T22:07:44.728Z,11.30
2018-09-04T22:10:13.183Z,11.97
2018-09-04T22:12:41.320Z,10.93
2018-09-04T22:15:09.772Z,10.93
2018-09-04T22:17:38.341Z,11.10
2018-09-04T22:20:07.031Z,11.10
2018-09-04T22:22:35.236Z,11.77
2018-09-04T22:25:03.920Z,11.30
2018-09-04T22:27:32.923Z,10.43
2018-09-04T22:30:01.273Z,11.17
2018-09-04T22:32:29.688Z,9.97
2018-09-04T22:34:58.076Z,10.00
2018-09-04T22:37:26.431Z,9.87
2018-09-04T22:39:54.896Z,9.23
2018-09-04T22:42:23.043Z,9.43
2018-09-04T22:48:11.527Z,11.40
2018-09-04T22:50:45.428Z,10.30
2018-09-04T22:53:13.545Z,9.50
2018-09-04T22:55:41.919Z,10.40
2018-09-04T22:58:10.421Z,9.87
2018-09-04T23:00:39.011Z,10.23
2018-09-04T23:03:07.128Z,10.30
2018-09-04T23:05:35.456Z,9.50
2018-09-04T23:08:05.783Z,9.30
2018-09-04T23:10:34.480Z,9.40
2018-09-04T23:13:02.929Z,9.27
2018-09-04T23:15:31.420Z,9.70
2018-09-04T23:17:59.857Z,8.80
2018-09-04T23:20:28.312Z,7.73
2018-09-04T23:22:56.771Z,8.93
2018-09-04T23:25:25.203Z,8.37
2018-09-04T23:27:53.681Z,8.57
2018-09-04T23:30:22.317Z,9.00
2018-09-04T23:32:51.083Z,8.90
2018-09-04T23:35:19.519Z,8.83
2018-09-04T23:37:47.991Z,8.27
2018-09-04T23:40:16.427Z,9.07
2018-09-04T23:42:44.575Z,8.50
2018-09-04T23:45:13.936Z,8.50
2018-09-04T23:47:42.912Z,8.40
2018-09-04T23:50:11.455Z,8.20
2018-09-04T23:52:39.985Z,7.97
2018-09-04T23:55:08.788Z,7.73
2018-09-04T23:57:37.683Z,8.60
